createdAt,value
2019-03-30T00:02:11.667Z,13.33
2019-03-30T00:04:42.118Z,13.67
2019-03-30T00:07:12.673Z,12.43
2019-03-30T00:09:43.196Z,15.60
2019-03-30T00:12:13.754Z,14.47
2019-03-30T00:14:44.196Z,10.50
2019-03-30T00:17:14.655Z,11.30
2019-03-30T00:19:45.103Z,11.77
2019-03-30T00:22:15.610Z,11.57
2019-03-30T00:24:46.163Z,11.93
2019-03-30T00:27:16.664Z,11.03
2019-03-30T00:29:47.241Z,13.10
2019-03-30T00:32:17.707Z,13.17
2019-03-30T00:34:48.130Z,12.53
2019-03-30T00:37:18.546Z,11.87
2019-03-30T00:39:48.991Z,11.50
2019-03-30T00:42:19.474Z,11.37
2019-03-30T00:44:49.832Z,13.53
2019-03-30T00:47:20.272Z,10.87
2019-03-30T00:49:50.693Z,11.77
2019-03-30T00:52:21.145Z,12.43
2019-03-30T00:54:51.671Z,13.10
2019-03-30T00:57:22.224Z,11.70
2019-03-30T00:59:52.904Z,12.47
2019-03-30T01:02:23.347Z,11.03
2019-03-30T01:04:53.879Z,18.97
2019-03-30T01:07:24.420Z,10.93
2019-03-30T01:09:54.892Z,12.97
2019-03-30T01:12:25.346Z,13.10
2019-03-30T01:14:55.859Z,12.17
2019-03-30T01:17:26.219Z,12.53
2019-03-30T01:20:02.675Z,13.13
2019-03-30T01:22:29.028Z,14.30
2019-03-30T01:24:59.471Z,14.43
2019-03-30T01:27:31.150Z,12.77
2019-03-30T01:30:01.623Z,12.77
2019-03-30T01:32:34.910Z,14.23
2019-03-30T01:35:04.294Z,13.77
2019-03-30T01:37:34.837Z,14.67
2019-03-30T01:40:06.124Z,11.60
2019-03-30T01:42:36.714Z,11.93
2019-03-30T01:45:08.625Z,10.97
2019-03-30T01:47:39.150Z,12.77
2019-03-30T01:50:17.059Z,13.57
2019-03-30T01:52:42.434Z,11.90
2019-03-30T01:55:12.975Z,13.27
2019-03-30T01:57:43.418Z,13.57
2019-03-30T02:00:14.435Z,12.50
2019-03-30T02:02:45.165Z,13.23
2019-03-30T02:05:15.708Z,12.23
2019-03-30T02:07:46.261Z,16.20
2019-03-30T02:10:24.491Z,12.63
2019-03-30T02:12:54.952Z,13.40
2019-03-30T02:15:25.410Z,15.23
2019-03-30T02:17:55.855Z,13.63
2019-03-30T02:20:37.925Z,16.37
2019-03-30T02:23:08.569Z,13.20
2019-03-30T02:25:39.202Z,12.27
2019-03-30T02:28:10.105Z,16.17
2019-03-30T02:30:40.858Z,13.83
2019-03-30T02:33:11.422Z,13.37
2019-03-30T02:35:43.310Z,11.97
2019-03-30T02:38:13.831Z,13.37
2019-03-30T02:40:44.306Z,12.47
2019-03-30T02:43:14.929Z,13.23
2019-03-30T02:45:45.393Z,13.77
2019-03-30T02:48:15.827Z,13.33
2019-03-30T02:50:49.861Z,15.03
2019-03-30T02:53:18.569Z,14.07
2019-03-30T02:55:49.995Z,11.97
2019-03-30T02:58:20.534Z,13.20
2019-03-30T03:00:50.904Z,11.70
2019-03-30T03:03:21.268Z,12.80
2019-03-30T03:05:51.776Z,12.80
2019-03-30T03:08:22.351Z,13.83
2019-03-30T03:10:52.799Z,12.70
2019-03-30T03:13:23.236Z,11.57
2019-03-30T03:15:53.765Z,13.23
2019-03-30T03:18:24.232Z,12.40
2019-03-30T03:21:07.483Z,11.23
2019-03-30T03:23:26.767Z,12.83
2019-03-30T03:25:57.203Z,11.33
2019-03-30T03:28:27.634Z,12.53
2019-03-30T03:30:58.165Z,11.07
2019-03-30T03:33:28.787Z,12.37
2019-03-30T03:35:59.248Z,10.77
2019-03-30T03:38:29.768Z,10.27
2019-03-30T03:41:00.216Z,12.63
2019-03-30T03:43:30.594Z,13.60
2019-03-30T03:46:01.133Z,11.13
2019-03-30T03:48:31.554Z,11.77
2019-03-30T03:51:04.034Z,11.83
2019-03-30T03:53:36.450Z,13.43
2019-03-30T03:56:08.642Z,12.73
2019-03-30T03:58:40.859Z,13.00
2019-03-30T04:01:12.696Z,12.17
2019-03-30T04:03:43.613Z,11.60
2019-03-30T04:06:14.787Z,12.73
2019-03-30T04:08:48.000Z,12.60
2019-03-30T04:11:20.230Z,12.63
2019-03-30T04:13:53.187Z,12.30
2019-03-30T04:16:23.866Z,11.40
2019-03-30T04:18:54.401Z,11.07
2019-03-30T04:21:42.366Z,12.17
2019-03-30T04:23:57.029Z,11.63
2019-03-30T04:26:27.438Z,10.13
2019-03-30T04:28:57.925Z,11.60
2019-03-30T04:31:28.357Z,10.57
2019-03-30T04:33:58.801Z,10.97
2019-03-30T04:36:29.425Z,12.73
2019-03-30T04:38:59.817Z,10.37
2019-03-30T04:41:30.245Z,10.77
2019-03-30T04:44:00.704Z,10.90
2019-03-30T04:46:31.347Z,10.77
2019-03-30T04:49:01.714Z,13.67
2019-03-30T04:51:32.251Z,13.50
2019-03-30T04:54:02.720Z,12.90
2019-03-30T04:56:34.206Z,12.57
2019-03-30T04:59:04.662Z,11.07
2019-03-30T05:01:35.068Z,10.03
2019-03-30T05:04:06.580Z,14.83
2019-03-30T05:06:37.849Z,11.43
2019-03-30T05:09:08.740Z,10.83
2019-03-30T05:11:39.180Z,16.80
2019-03-30T05:14:09.555Z,11.53
2019-03-30T05:16:39.985Z,13.33
2019-03-30T05:19:10.358Z,10.37
2019-03-30T05:21:40.910Z,11.80
2019-03-30T05:24:11.351Z,10.80
2019-03-30T05:26:41.805Z,10.93
2019-03-30T05:29:12.341Z,11.27
2019-03-30T05:31:42.699Z,12.73
2019-03-30T05:34:13.171Z,11.33
2019-03-30T05:36:43.544Z,12.17
2019-03-30T05:39:13.919Z,10.30
2019-03-30T05:41:44.449Z,10.83
2019-03-30T05:44:14.895Z,10.83
2019-03-30T05:46:45.328Z,12.20
2019-03-30T05:49:15.834Z,13.27
2019-03-30T05:51:46.207Z,12.17
2019-03-30T05:54:16.692Z,11.20
2019-03-30T05:56:47.153Z,12.13
2019-03-30T05:59:17.600Z,11.90
2019-03-30T06:01:49.172Z,12.90
2019-03-30T06:04:19.689Z,11.73
2019-03-30T06:06:50.301Z,13.60
2019-03-30T06:09:20.779Z,12.13
2019-03-30T06:11:51.153Z,11.97
2019-03-30T06:14:21.608Z,14.30
2019-03-30T06:16:53.233Z,10.33
2019-03-30T06:19:23.771Z,10.50
2019-03-30T06:21:54.309Z,9.60
2019-03-30T06:24:24.751Z,10.13
2019-03-30T06:26:55.181Z,9.23
2019-03-30T06:29:25.710Z,9.80
2019-03-30T06:31:56.135Z,10.00
2019-03-30T06:34:26.605Z,12.87
2019-03-30T06:36:57.133Z,10.50
2019-03-30T06:39:27.664Z,9.43
2019-03-30T06:41:58.305Z,8.83
2019-03-30T06:44:28.668Z,11.20
2019-03-30T06:46:59.169Z,9.77
2019-03-30T06:49:29.726Z,12.07
2019-03-30T06:52:00.252Z,8.57
2019-03-30T06:54:30.700Z,8.60
2019-03-30T06:57:01.304Z,9.27
2019-03-30T06:59:31.743Z,8.90
2019-03-30T07:02:02.244Z,8.80
2019-03-30T07:04:32.966Z,8.97
2019-03-30T07:07:04.101Z,9.53
2019-03-30T07:09:36.273Z,9.17
2019-03-30T07:12:07.954Z,9.57
2019-03-30T07:14:40.644Z,9.20
2019-03-30T07:17:12.761Z,10.67
2019-03-30T07:19:45.269Z,10.13
2019-03-30T07:22:15.788Z,11.13
2019-03-30T07:24:46.332Z,10.53
2019-03-30T07:27:16.850Z,10.20
2019-03-30T07:29:47.413Z,11.03
2019-03-30T07:32:17.985Z,10.67
2019-03-30T07:34:48.453Z,13.90
2019-03-30T07:37:18.953Z,10.70
2019-03-30T07:39:49.410Z,13.30
2019-03-30T07:42:19.874Z,12.93
2019-03-30T07:44:50.421Z,12.33
2019-03-30T07:47:20.945Z,11.60
2019-03-30T07:49:51.423Z,12.67
2019-03-30T07:52:22.933Z,12.63
2019-03-30T07:54:53.319Z,11.93
2019-03-30T07:57:23.892Z,14.97
2019-03-30T07:59:54.340Z,12.23
2019-03-30T08:02:24.710Z,11.27
2019-03-30T08:04:55.156Z,15.00
2019-03-30T08:07:25.614Z,14.30
2019-03-30T08:09:56.162Z,15.73
2019-03-30T08:12:26.613Z,13.07
2019-03-30T08:14:57.071Z,12.47
2019-03-30T08:17:27.515Z,12.73
2019-03-30T08:19:59.082Z,11.17
2019-03-30T08:22:29.616Z,15.53
2019-03-30T08:25:00.361Z,11.87
2019-03-30T08:27:30.892Z,13.27
2019-03-30T08:30:01.341Z,18.97
2019-03-30T08:32:31.780Z,12.93
2019-03-30T08:35:02.343Z,11.13
2019-03-30T08:37:32.781Z,12.47
2019-03-30T08:40:04.763Z,11.93
2019-03-30T08:42:35.252Z,12.30
2019-03-30T08:45:07.555Z,12.37
2019-03-30T08:47:38.080Z,12.70
2019-03-30T08:50:09.447Z,13.13
2019-03-30T08:52:39.992Z,11.43
2019-03-30T08:55:10.891Z,14.67
2019-03-30T08:57:41.424Z,11.00
2019-03-30T09:00:12.359Z,12.93
2019-03-30T09:02:42.948Z,11.50
2019-03-30T09:05:13.592Z,12.40
2019-03-30T09:07:45.216Z,13.03
2019-03-30T09:10:16.273Z,14.23
2019-03-30T09:12:46.829Z,13.13
2019-03-30T09:15:17.288Z,14.30
2019-03-30T09:17:47.754Z,11.87
2019-03-30T09:20:18.386Z,13.70
2019-03-30T09:22:48.984Z,13.73
2019-03-30T09:25:19.523Z,12.73
2019-03-30T09:27:50.010Z,13.67
2019-03-30T09:30:20.632Z,15.43
2019-03-30T09:32:51.137Z,13.23
2019-03-30T09:35:21.823Z,16.07
2019-03-30T09:37:52.270Z,15.30
2019-03-30T09:40:22.840Z,16.50
2019-03-30T09:42:53.390Z,14.63
2019-03-30T09:45:23.772Z,13.63
2019-03-30T09:47:54.317Z,14.70
2019-03-30T09:50:24.936Z,13.50
2019-03-30T09:52:55.420Z,13.47
2019-03-30T09:55:27.339Z,14.20
2019-03-30T09:57:57.960Z,13.53
2019-03-30T10:00:28.414Z,13.50
2019-03-30T10:02:59.034Z,16.03
2019-03-30T10:05:29.565Z,15.53
2019-03-30T10:08:00.117Z,16.23
2019-03-30T10:10:30.787Z,15.90
2019-03-30T10:13:01.379Z,15.97
2019-03-30T10:15:31.861Z,15.73
2019-03-30T10:18:02.437Z,12.40
2019-03-30T10:20:33.007Z,12.83
2019-03-30T10:23:04.476Z,13.17
2019-03-30T10:25:35.035Z,14.13
2019-03-30T10:28:05.672Z,15.33
2019-03-30T10:30:36.142Z,15.37
2019-03-30T10:33:06.587Z,14.83
2019-03-30T10:35:37.080Z,14.53
2019-03-30T10:38:07.557Z,14.87
2019-03-30T10:40:38.002Z,15.43
2019-03-30T10:43:08.598Z,15.90
2019-03-30T10:45:39.136Z,15.00
2019-03-30T10:48:09.669Z,16.23
2019-03-30T10:50:40.209Z,15.60
2019-03-30T10:53:10.640Z,15.97
2019-03-30T10:55:41.204Z,14.07
2019-03-30T10:58:11.835Z,12.83
2019-03-30T11:00:43.482Z,12.23
2019-03-30T11:03:14.111Z,11.63
2019-03-30T11:05:44.675Z,11.83
2019-03-30T11:08:15.115Z,10.57
2019-03-30T11:10:46.668Z,13.27
2019-03-30T11:13:17.179Z,12.60
2019-03-30T11:15:47.644Z,12.03
2019-03-30T11:18:19.458Z,17.80
2019-03-30T11:20:50.117Z,14.50
2019-03-30T11:23:20.724Z,14.77
2019-03-30T11:25:51.346Z,15.33
2019-03-30T11:28:21.823Z,13.03
2019-03-30T11:30:52.394Z,14.63
2019-03-30T11:33:22.833Z,17.17
2019-03-30T11:35:53.220Z,18.53
2019-03-30T11:38:23.743Z,14.67
2019-03-30T11:40:54.345Z,20.60
2019-03-30T11:43:24.742Z,15.30
2019-03-30T11:45:55.204Z,14.83
2019-03-30T11:48:26.833Z,16.70
2019-03-30T11:50:57.310Z,15.50
2019-03-30T11:53:27.842Z,15.03
2019-03-30T11:55:58.318Z,16.33
2019-03-30T11:58:28.836Z,15.87
2019-03-30T12:00:59.285Z,13.77
2019-03-30T12:03:29.749Z,15.20
2019-03-30T12:06:00.192Z,18.73
2019-03-30T12:08:30.650Z,15.37
2019-03-30T12:11:01.267Z,16.73
2019-03-30T12:13:31.799Z,18.17
2019-03-30T12:16:02.432Z,16.87
2019-03-30T12:18:33.230Z,17.90
2019-03-30T12:21:03.771Z,14.90
2019-03-30T12:23:34.308Z,16.03
2019-03-30T12:26:04.834Z,15.27
2019-03-30T12:28:35.360Z,15.10
2019-03-30T12:31:06.069Z,15.37
2019-03-30T12:33:36.657Z,13.00
2019-03-30T12:36:07.166Z,13.17
2019-03-30T12:38:37.718Z,16.20
2019-03-30T12:41:08.549Z,11.37
2019-03-30T12:43:39.290Z,15.50
2019-03-30T12:46:09.825Z,14.73
2019-03-30T12:48:41.308Z,13.63
2019-03-30T12:51:12.016Z,13.77
2019-03-30T12:53:50.207Z,15.53
2019-03-30T12:56:15.778Z,13.88
2019-03-30T12:58:46.149Z,11.87
2019-03-30T13:01:16.587Z,12.57
2019-03-30T13:03:47.036Z,12.80
2019-03-30T13:06:17.574Z,14.07
2019-03-30T13:08:48.033Z,12.10
2019-03-30T13:11:18.753Z,12.10
2019-03-30T13:13:49.227Z,13.57
2019-03-30T13:16:19.807Z,13.10
2019-03-30T13:18:50.657Z,12.33
2019-03-30T13:21:21.122Z,16.03
2019-03-30T13:23:51.754Z,16.53
2019-03-30T13:26:22.140Z,12.83
2019-03-30T13:28:52.668Z,13.03
2019-03-30T13:31:23.161Z,11.83
2019-03-30T13:33:53.744Z,13.53
2019-03-30T13:36:43.618Z,15.40
2019-03-30T13:39:14.078Z,12.07
2019-03-30T13:41:44.654Z,16.73
2019-03-30T13:44:15.146Z,15.67
2019-03-30T13:46:45.601Z,14.27
2019-03-30T13:49:16.135Z,14.33
2019-03-30T13:51:47.693Z,11.80
2019-03-30T13:54:19.132Z,12.50
2019-03-30T13:56:49.669Z,14.67
2019-03-30T13:59:20.300Z,12.47
2019-03-30T14:01:50.831Z,12.90
2019-03-30T14:04:21.327Z,11.90
2019-03-30T14:06:51.737Z,13.97
2019-03-30T14:09:22.247Z,14.53
2019-03-30T14:11:52.850Z,13.47
2019-03-30T14:14:23.515Z,15.67
2019-03-30T14:16:53.981Z,15.30
2019-03-30T14:19:24.463Z,14.37
2019-03-30T14:21:54.986Z,12.83
2019-03-30T14:24:25.438Z,10.87
2019-03-30T14:26:55.983Z,11.73
2019-03-30T14:29:26.461Z,13.53
2019-03-30T14:31:57.050Z,16.00
2019-03-30T14:34:27.588Z,15.83
2019-03-30T14:36:58.089Z,17.10
2019-03-30T14:39:28.585Z,16.43
2019-03-30T14:41:59.616Z,15.93
2019-03-30T14:44:30.097Z,13.07
2019-03-30T14:47:00.696Z,15.90
2019-03-30T14:49:31.307Z,17.50
2019-03-30T14:52:01.875Z,15.83
2019-03-30T14:54:32.432Z,16.87
2019-03-30T14:57:02.978Z,16.67
2019-03-30T14:59:33.521Z,18.33
2019-03-30T15:02:04.012Z,19.17
2019-03-30T15:04:34.547Z,17.13
2019-03-30T15:07:05.061Z,17.60
2019-03-30T15:09:35.514Z,16.50
2019-03-30T15:12:06.545Z,19.03
2019-03-30T15:14:37.006Z,16.83
2019-03-30T15:17:07.551Z,16.40
2019-03-30T15:19:39.232Z,16.77
2019-03-30T15:22:09.705Z,16.30
2019-03-30T15:24:40.156Z,17.67
2019-03-30T15:27:10.693Z,16.67
2019-03-30T15:29:41.201Z,15.67
2019-03-30T15:32:11.748Z,15.53
2019-03-30T15:34:42.270Z,17.77
2019-03-30T15:37:12.648Z,17.30
2019-03-30T15:39:43.093Z,15.60
2019-03-30T15:42:13.577Z,16.37
2019-03-30T15:44:44.132Z,16.40
2019-03-30T15:47:14.592Z,17.60
2019-03-30T15:49:45.645Z,19.93
2019-03-30T15:52:16.178Z,16.03
2019-03-30T15:54:46.786Z,17.47
2019-03-30T15:57:18.246Z,17.43
2019-03-30T15:59:48.766Z,16.67
2019-03-30T16:02:19.300Z,18.13
2019-03-30T16:04:49.910Z,18.50
2019-03-30T16:07:20.348Z,17.90
2019-03-30T16:09:50.808Z,16.07
2019-03-30T16:12:21.269Z,18.43
2019-03-30T16:14:51.730Z,17.97
2019-03-30T16:17:22.368Z,17.43
2019-03-30T16:19:53.091Z,17.73
2019-03-30T16:22:23.701Z,18.13
2019-03-30T16:24:54.157Z,17.60
2019-03-30T16:27:29.142Z,16.83
2019-03-30T16:29:58.592Z,15.63
2019-03-30T16:32:29.023Z,16.27
2019-03-30T16:34:59.562Z,17.37
2019-03-30T16:37:30.046Z,17.77
2019-03-30T16:40:00.531Z,15.67
2019-03-30T16:42:31.013Z,17.07
2019-03-30T16:45:01.587Z,17.43
2019-03-30T16:47:33.220Z,15.87
2019-03-30T16:50:03.780Z,16.67
2019-03-30T16:52:35.306Z,17.10
2019-03-30T16:55:06.122Z,16.27
2019-03-30T16:57:42.998Z,16.00
2019-03-30T17:00:09.724Z,17.23
2019-03-30T17:02:41.256Z,15.00
2019-03-30T17:05:12.016Z,16.33
2019-03-30T17:07:42.491Z,14.73
2019-03-30T17:10:14.617Z,16.60
2019-03-30T17:12:45.728Z,17.13
2019-03-30T17:15:16.273Z,15.37
2019-03-30T17:17:46.719Z,18.50
2019-03-30T17:20:17.251Z,14.67
2019-03-30T17:22:47.712Z,16.03
2019-03-30T17:25:18.194Z,14.73
2019-03-30T17:27:57.957Z,16.50
2019-03-30T17:30:20.811Z,15.63
2019-03-30T17:32:51.414Z,14.83
2019-03-30T17:35:21.864Z,14.90
2019-03-30T17:37:52.392Z,15.60
2019-03-30T17:40:23.118Z,15.03
2019-03-30T17:42:53.680Z,12.23
2019-03-30T17:45:24.212Z,17.13
2019-03-30T17:47:54.755Z,15.53
2019-03-30T17:50:25.294Z,15.67
2019-03-30T17:52:55.875Z,14.47
2019-03-30T17:55:33.507Z,15.10
2019-03-30T17:58:12.364Z,16.33
2019-03-30T18:00:30.946Z,16.67
2019-03-30T18:03:01.375Z,12.80
2019-03-30T18:05:33.477Z,13.93
2019-03-30T18:08:04.542Z,12.13
2019-03-30T18:10:35.094Z,13.13
2019-03-30T18:13:05.774Z,12.97
2019-03-30T18:15:36.419Z,15.30
2019-03-30T18:18:07.062Z,14.63
2019-03-30T18:20:37.544Z,15.13
2019-03-30T18:23:08.056Z,16.53
2019-03-30T18:25:38.509Z,17.17
2019-03-30T18:28:09.053Z,18.20
2019-03-30T18:30:41.432Z,16.13
2019-03-30T18:33:11.935Z,15.03
2019-03-30T18:35:43.824Z,16.07
2019-03-30T18:38:14.484Z,15.63
2019-03-30T18:40:44.938Z,16.70
2019-03-30T18:43:15.658Z,14.43
2019-03-30T18:45:46.291Z,16.03
2019-03-30T18:48:17.974Z,13.00
2019-03-30T18:50:48.546Z,16.00
2019-03-30T18:53:19.398Z,16.83
2019-03-30T18:55:49.965Z,16.53
2019-03-30T18:58:20.452Z,14.23
2019-03-30T19:00:50.918Z,13.63
2019-03-30T19:03:21.353Z,14.77
2019-03-30T19:05:51.705Z,22.73
2019-03-30T19:08:22.198Z,17.40
2019-03-30T19:10:52.630Z,14.13
2019-03-30T19:13:23.265Z,15.03
2019-03-30T19:18:43.225Z,18.87
2019-03-30T19:21:13.843Z,19.03
2019-03-30T19:23:45.426Z,16.00
2019-03-30T19:26:15.981Z,17.47
2019-03-30T19:28:56.111Z,15.33
2019-03-30T19:31:18.702Z,18.13
2019-03-30T19:33:49.242Z,19.70
2019-03-30T19:36:19.701Z,20.53
2019-03-30T19:38:50.179Z,18.27
2019-03-30T19:41:20.683Z,14.47
2019-03-30T19:43:51.164Z,13.23
2019-03-30T19:46:21.716Z,15.43
2019-03-30T19:48:52.195Z,15.93
2019-03-30T19:51:22.740Z,12.93
2019-03-30T19:53:53.203Z,12.93
2019-03-30T19:56:23.754Z,11.77
2019-03-30T19:58:54.293Z,13.87
2019-03-30T20:01:24.853Z,16.53
2019-03-30T20:03:55.313Z,12.97
2019-03-30T20:06:25.765Z,17.17
2019-03-30T20:08:57.235Z,13.10
2019-03-30T20:11:27.881Z,13.93
2019-03-30T20:13:58.581Z,17.10
2019-03-30T20:16:29.070Z,15.80
2019-03-30T20:19:11.498Z,17.07
2019-03-30T20:21:31.781Z,15.93
2019-03-30T20:24:02.231Z,15.13
2019-03-30T20:26:32.622Z,14.07
2019-03-30T20:29:03.064Z,14.33
2019-03-30T20:31:33.542Z,14.00
2019-03-30T20:34:04.021Z,15.53
2019-03-30T20:36:35.303Z,17.27
2019-03-30T20:39:08.338Z,15.63
2019-03-30T20:41:38.830Z,15.57
2019-03-30T20:44:09.299Z,16.07
2019-03-30T20:46:39.754Z,15.90
2019-03-30T20:49:10.297Z,17.27
2019-03-30T20:51:40.769Z,16.23
2019-03-30T20:54:11.239Z,14.37
2019-03-30T20:56:41.790Z,14.10
2019-03-30T20:59:12.265Z,14.90
2019-03-30T21:01:42.791Z,13.77
2019-03-30T21:04:13.435Z,15.97
2019-03-30T21:06:43.943Z,11.27
2019-03-30T21:09:14.385Z,14.23
2019-03-30T21:11:44.911Z,11.53
2019-03-30T21:14:15.355Z,12.23
2019-03-30T21:16:45.820Z,14.93
2019-03-30T21:19:16.290Z,14.43
2019-03-30T21:21:46.720Z,12.20
2019-03-30T21:24:17.197Z,14.90
2019-03-30T21:26:47.837Z,15.20
2019-03-30T21:29:18.303Z,12.63
2019-03-30T21:31:49.343Z,14.80
2019-03-30T21:34:19.971Z,12.00
2019-03-30T21:36:50.508Z,14.03
2019-03-30T21:39:20.962Z,12.87
2019-03-30T21:41:51.379Z,13.60
2019-03-30T21:44:22.590Z,12.70
2019-03-30T21:46:53.155Z,15.53
2019-03-30T21:49:23.619Z,15.97
2019-03-30T21:51:54.119Z,11.63
2019-03-30T21:54:24.641Z,11.90
2019-03-30T21:56:55.051Z,12.67
2019-03-30T21:59:25.434Z,13.13
2019-03-30T22:01:55.880Z,12.70
2019-03-30T22:04:26.322Z,10.80
2019-03-30T22:06:56.755Z,14.17
2019-03-30T22:09:27.376Z,15.20
2019-03-30T22:11:57.911Z,11.53
2019-03-30T22:14:28.469Z,16.23
2019-03-30T22:16:58.943Z,11.70
2019-03-30T22:19:29.443Z,15.90
2019-03-30T22:22:01.208Z,14.00
2019-03-30T22:24:31.786Z,15.87
2019-03-30T22:27:02.257Z,14.17
2019-03-30T22:29:32.737Z,11.63
2019-03-30T22:32:03.212Z,15.17
2019-03-30T22:34:33.749Z,16.77
2019-03-30T22:37:04.317Z,13.03
2019-03-30T22:39:35.693Z,12.73
2019-03-30T22:42:06.220Z,14.03
2019-03-30T22:44:36.704Z,11.67
2019-03-30T22:47:07.143Z,11.77
2019-03-30T22:49:37.699Z,16.83
2019-03-30T22:52:08.125Z,16.03
2019-03-30T22:54:38.744Z,15.23
2019-03-30T22:57:09.186Z,13.53
2019-03-30T22:59:39.697Z,12.77
2019-03-30T23:02:10.223Z,11.63
2019-03-30T23:04:40.827Z,12.47
2019-03-30T23:07:11.568Z,14.87
2019-03-30T23:09:42.093Z,13.70
2019-03-30T23:12:12.590Z,12.40
2019-03-30T23:15:02.640Z,13.20
2019-03-30T23:17:34.194Z,15.47
2019-03-30T23:20:05.890Z,12.10
2019-03-30T23:22:36.367Z,11.70
2019-03-30T23:25:08.043Z,11.97
2019-03-30T23:27:38.448Z,12.60
2019-03-30T23:30:10.002Z,10.17
2019-03-30T23:32:40.544Z,9.57
2019-03-30T23:35:11.161Z,10.33
2019-03-30T23:37:41.717Z,11.83
2019-03-30T23:40:12.302Z,13.50
2019-03-30T23:42:42.845Z,15.30
2019-03-30T23:45:13.503Z,11.17
2019-03-30T23:47:44.162Z,12.60
2019-03-30T23:50:15.092Z,12.77
2019-03-30T23:52:45.693Z,12.97
2019-03-30T23:55:16.177Z,15.03
2019-03-30T23:57:46.683Z,13.37
